Time;durP1;ratioP1;P1;durP2;ratioP2;P2;SDS_P1;SDS_P2;PMS_P1;PMS_P2;Temp;Humidity;BMP_temperature;BMP_pressure;BME280_temperature;BME280_humidity;BME280_pressure;Samples;Min_cycle;Max_cycle;Signal;HPM_P1;HPM_P2
2021/12/29 00:00:28;;;;;;;6.65;4.07;;;5.90;99.90;;;;;;5069089;28;20091;-47
2021/12/29 00:02:55;;;;;;;23.15;6.18;;;5.80;99.90;;;;;;5068698;28;20024;-46
2021/12/29 00:05:22;;;;;;;10.32;5.03;;;5.80;99.90;;;;;;5068536;28;20024;-46
2021/12/29 00:07:48;;;;;;;15.02;6.18;;;5.80;99.90;;;;;;5062700;28;20029;-46
2021/12/29 00:10:15;;;;;;;16.30;5.30;;;5.90;99.90;;;;;;5070353;28;20031;-46
2021/12/29 00:12:45;;;;;;;12.40;5.55;;;5.90;99.90;;;;;;5069275;28;20355;-46
2021/12/29 00:15:13;;;;;;;17.20;6.57;;;5.90;99.90;;;;;;5066369;28;20450;-49
2021/12/29 00:17:42;;;;;;;16.60;7.07;;;5.90;99.90;;;;;;5067886;28;20029;-47
2021/12/29 00:20:09;;;;;;;13.23;6.03;;;6.00;99.90;;;;;;5068742;28;20070;-46
2021/12/29 00:22:35;;;;;;;16.60;5.05;;;6.00;99.90;;;;;;5068379;28;20100;-46
2021/12/29 00:25:01;;;;;;;13.43;4.60;;;6.00;99.90;;;;;;5065888;28;20158;-49
2021/12/29 00:27:26;;;;;;;16.42;5.25;;;6.00;99.90;;;;;;5069157;28;20493;-47
2021/12/29 00:29:52;;;;;;;16.48;5.10;;;6.10;99.90;;;;;;5066351;28;20027;-47
2021/12/29 00:32:17;;;;;;;12.20;4.78;;;6.10;99.90;;;;;;5072060;28;20031;-47
2021/12/29 00:34:43;;;;;;;13.75;5.00;;;6.20;99.90;;;;;;5068249;28;20446;-47
2021/12/29 00:37:09;;;;;;;13.95;5.97;;;6.20;99.90;;;;;;5080681;28;20394;-47
2021/12/29 00:39:34;;;;;;;16.88;5.82;;;6.20;99.90;;;;;;5067881;28;20036;-47
2021/12/29 00:42:01;;;;;;;16.90;4.93;;;6.20;99.90;;;;;;5070388;28;20470;-48
2021/12/29 00:44:27;;;;;;;12.88;4.32;;;6.20;99.90;;;;;;5066999;28;20047;-47
2021/12/29 00:46:54;;;;;;;18.65;5.55;;;6.20;99.90;;;;;;5068704;28;20024;-49
2021/12/29 00:49:21;;;;;;;12.90;4.63;;;6.20;99.90;;;;;;5068078;28;20028;-46
2021/12/29 00:51:48;;;;;;;14.70;5.65;;;6.20;99.90;;;;;;5068544;28;20051;-47
2021/12/29 00:54:14;;;;;;;9.30;4.85;;;6.20;99.90;;;;;;5068442;28;20074;-46
2021/12/29 00:56:39;;;;;;;11.45;4.82;;;6.20;99.90;;;;;;5073807;28;20432;-46
2021/12/29 00:59:05;;;;;;;12.82;4.20;;;6.20;99.90;;;;;;5079350;28;20016;-47
2021/12/29 01:01:30;;;;;;;11.68;4.65;;;6.20;99.90;;;;;;5084172;28;20024;-45
2021/12/29 01:03:57;;;;;;;21.25;5.82;;;6.20;99.90;;;;;;5076602;28;20025;-46
2021/12/29 01:06:23;;;;;;;13.25;4.85;;;6.20;99.90;;;;;;5088772;28;20027;-46
2021/12/29 01:08:49;;;;;;;10.77;4.43;;;6.20;99.90;;;;;;5079628;28;20020;-48
2021/12/29 01:11:15;;;;;;;7.85;4.10;;;6.20;99.90;;;;;;5082171;28;20027;-46
2021/12/29 01:13:47;;;;;;;14.00;6.07;;;6.20;99.90;;;;;;5092607;28;20281;-47
2021/12/29 01:18:59;;;;;;;17.67;6.35;;;6.20;99.90;;;;;;5089230;28;20085;-46
2021/12/29 01:21:25;;;;;;;11.40;4.93;;;6.20;99.90;;;;;;5084843;28;20073;-46
2021/12/29 01:23:50;;;;;;;8.23;4.47;;;6.20;99.90;;;;;;5083826;28;20020;-45
2021/12/29 01:26:17;;;;;;;11.52;5.63;;;6.20;99.90;;;;;;5080943;28;20213;-46
2021/12/29 01:28:43;;;;;;;13.10;6.13;;;6.20;99.90;;;;;;5086793;28;20032;-46
2021/12/29 01:31:08;;;;;;;13.48;5.15;;;6.20;99.90;;;;;;5092385;28;20031;-46
2021/12/29 01:33:34;;;;;;;13.82;4.43;;;6.30;99.90;;;;;;5092740;28;20035;-45
2021/12/29 01:35:59;;;;;;;16.48;5.80;;;6.30;99.90;;;;;;5092516;28;20168;-48
2021/12/29 01:38:25;;;;;;;21.10;5.90;;;6.30;99.90;;;;;;5091488;28;20021;-46
2021/12/29 01:40:50;;;;;;;20.30;6.10;;;6.30;99.90;;;;;;5084196;28;20482;-46
2021/12/29 01:43:18;;;;;;;20.45;5.93;;;6.30;99.90;;;;;;5083184;28;20277;-48
2021/12/29 01:45:45;;;;;;;16.95;5.50;;;6.30;99.90;;;;;;5092136;28;20052;-47
2021/12/29 01:48:11;;;;;;;12.98;5.15;;;6.40;99.90;;;;;;5089518;28;20492;-47
2021/12/29 01:50:38;;;;;;;11.95;5.50;;;6.40;99.90;;;;;;5079794;28;20024;-46
2021/12/29 01:53:08;;;;;;;12.63;5.95;;;6.40;99.90;;;;;;5089920;28;20031;-46
2021/12/29 01:55:36;;;;;;;16.58;6.10;;;6.40;99.90;;;;;;5091811;28;20031;-46
2021/12/29 01:58:02;;;;;;;15.43;6.45;;;6.40;99.90;;;;;;5085480;28;20102;-46
2021/12/29 02:00:31;;;;;;;16.38;6.43;;;6.40;99.90;;;;;;5069575;28;20059;-46
2021/12/29 02:02:57;;;;;;;22.55;6.07;;;6.40;99.90;;;;;;5071457;28;20099;-46
2021/12/29 02:05:23;;;;;;;15.07;7.40;;;6.40;99.90;;;;;;5071612;28;20484;-46
2021/12/29 02:07:49;;;;;;;14.50;6.47;;;6.40;99.90;;;;;;5070838;28;20228;-45
2021/12/29 02:10:16;;;;;;;16.80;6.97;;;6.40;99.90;;;;;;5071129;28;20387;-47
2021/12/29 02:12:42;;;;;;;14.65;6.82;;;6.40;99.90;;;;;;5071419;28;20432;-46
2021/12/29 02:15:09;;;;;;;16.50;6.40;;;6.40;99.90;;;;;;5070950;28;20112;-46
2021/12/29 02:17:35;;;;;;;16.48;6.53;;;6.40;99.90;;;;;;5069186;28;20024;-46
2021/12/29 02:20:03;;;;;;;16.55;6.22;;;6.30;99.90;;;;;;5070881;28;20025;-49
2021/12/29 02:22:38;;;;;;;22.10;7.00;;;6.30;99.90;;;;;;5078381;28;20370;-46
2021/12/29 02:25:19;;;;;;;19.88;7.15;;;6.30;99.90;;;;;;5088981;28;20541;-45
2021/12/29 02:27:47;;;;;;;20.17;7.25;;;6.30;99.90;;;;;;5080111;28;20020;-46
2021/12/29 02:30:14;;;;;;;18.92;7.90;;;6.30;99.90;;;;;;5090020;28;20028;-48
2021/12/29 02:32:41;;;;;;;15.40;8.00;;;6.20;99.90;;;;;;5091266;28;20085;-47
2021/12/29 02:35:08;;;;;;;17.60;8.63;;;6.30;99.90;;;;;;5091033;28;20028;-46
2021/12/29 02:37:33;;;;;;;15.27;7.90;;;6.30;99.90;;;;;;5081660;28;20021;-47
2021/12/29 02:39:59;;;;;;;19.80;9.05;;;6.20;99.90;;;;;;5088078;28;20028;-48
2021/12/29 02:42:28;;;;;;;17.05;9.05;;;6.30;99.90;;;;;;5090979;28;20103;-48
2021/12/29 02:44:54;;;;;;;20.80;9.23;;;6.30;99.90;;;;;;5091293;28;20374;-49
2021/12/29 02:47:20;;;;;;;17.15;9.10;;;6.30;99.90;;;;;;5089146;28;20032;-49
2021/12/29 02:49:45;;;;;;;17.30;9.65;;;6.30;99.90;;;;;;5082166;28;20031;-46
2021/12/29 02:52:14;;;;;;;18.10;9.90;;;6.30;99.90;;;;;;5071609;28;20086;-48
2021/12/29 02:54:40;;;;;;;18.40;9.57;;;6.30;99.90;;;;;;5070873;28;20035;-46
2021/12/29 02:57:06;;;;;;;24.55;11.18;;;6.30;99.90;;;;;;5076665;28;20028;-46
2021/12/29 02:59:32;;;;;;;20.75;10.25;;;6.30;99.90;;;;;;5083444;28;20028;-46
2021/12/29 03:01:58;;;;;;;21.65;10.90;;;6.30;99.90;;;;;;5079413;28;20558;-46
2021/12/29 03:04:23;;;;;;;19.55;10.15;;;6.30;99.90;;;;;;5077514;28;20095;-47
2021/12/29 03:06:49;;;;;;;25.75;11.60;;;6.30;99.90;;;;;;5069681;28;20086;-46
2021/12/29 03:09:16;;;;;;;22.45;11.50;;;6.30;99.90;;;;;;5068723;28;20028;-45
2021/12/29 03:11:42;;;;;;;17.52;10.98;;;6.40;99.90;;;;;;5066487;28;20017;-46
2021/12/29 03:14:09;;;;;;;29.92;11.93;;;6.30;99.90;;;;;;5068619;28;20078;-47
2021/12/29 03:16:35;;;;;;;24.70;11.23;;;6.30;99.90;;;;;;5069911;28;20032;-46
2021/12/29 03:19:03;;;;;;;21.10;11.80;;;6.30;99.90;;;;;;5069125;28;20390;-48
2021/12/29 03:21:30;;;;;;;26.90;11.73;;;6.30;99.90;;;;;;5071419;28;20020;-46
2021/12/29 03:23:55;;;;;;;23.98;12.00;;;6.30;99.90;;;;;;5070741;28;20035;-47
2021/12/29 03:26:20;;;;;;;24.73;13.07;;;6.30;99.90;;;;;;5073558;28;20405;-46
2021/12/29 03:28:46;;;;;;;25.95;13.50;;;6.30;99.90;;;;;;5069918;28;20067;-46
2021/12/29 03:31:14;;;;;;;25.05;13.15;;;6.30;99.90;;;;;;5071995;28;20097;-46
2021/12/29 03:33:42;;;;;;;25.83;13.82;;;6.30;99.90;;;;;;5069998;28;20028;-46
2021/12/29 03:36:09;;;;;;;29.88;14.15;;;6.30;99.90;;;;;;5068716;28;20081;-46
2021/12/29 03:38:37;;;;;;;24.55;13.15;;;6.30;99.90;;;;;;5068515;28;20108;-47
2021/12/29 03:41:05;;;;;;;21.20;13.07;;;6.30;99.90;;;;;;5069008;28;20069;-46
2021/12/29 03:43:34;;;;;;;25.48;13.80;;;6.30;99.90;;;;;;5068597;28;20020;-48
2021/12/29 03:46:02;;;;;;;23.08;13.27;;;6.30;99.90;;;;;;5068120;28;20078;-46
2021/12/29 03:48:29;;;;;;;25.50;13.75;;;6.30;99.90;;;;;;5080022;28;20032;-46
2021/12/29 03:50:56;;;;;;;24.50;14.05;;;6.20;99.90;;;;;;5085288;28;20032;-48
2021/12/29 03:53:21;;;;;;;28.38;14.48;;;6.20;99.90;;;;;;5081013;28;20028;-46
2021/12/29 03:55:50;;;;;;;25.98;14.73;;;6.20;99.90;;;;;;5088991;28;20039;-46
2021/12/29 03:58:19;;;;;;;30.35;15.20;;;6.20;99.90;;;;;;5079527;28;20039;-46
2021/12/29 04:00:46;;;;;;;31.40;15.77;;;6.20;99.90;;;;;;5084242;28;20024;-45
2021/12/29 04:03:12;;;;;;;25.63;14.05;;;6.20;99.90;;;;;;5084031;28;20469;-47
2021/12/29 04:05:38;;;;;;;35.53;16.77;;;6.30;99.90;;;;;;5083306;28;20031;-46
2021/12/29 04:08:03;;;;;;;30.95;16.00;;;6.30;99.90;;;;;;5085487;28;20111;-45
2021/12/29 04:10:30;;;;;;;28.40;15.82;;;6.30;99.90;;;;;;5081957;28;20565;-48
2021/12/29 04:12:56;;;;;;;26.98;15.27;;;6.20;99.90;;;;;;5075890;28;20482;-45
2021/12/29 04:15:24;;;;;;;32.03;17.65;;;6.30;99.90;;;;;;5069024;28;20101;-48
2021/12/29 04:17:51;;;;;;;34.78;16.95;;;6.30;99.90;;;;;;5063967;28;20078;-45
2021/12/29 04:23:07;;;;;;;34.70;16.90;;;6.30;99.90;;;;;;5086262;28;20135;-45
2021/12/29 04:25:36;;;;;;;36.00;17.48;;;6.30;99.90;;;;;;5080409;28;20028;-45
2021/12/29 04:28:03;;;;;;;27.27;16.15;;;6.30;99.90;;;;;;5088410;28;20397;-46
2021/12/29 04:30:30;;;;;;;33.38;16.48;;;6.30;99.90;;;;;;5079640;28;20021;-46
2021/12/29 04:32:55;;;;;;;30.27;16.20;;;6.40;99.90;;;;;;5085531;28;20060;-46
2021/12/29 04:35:22;;;;;;;25.35;15.45;;;6.30;99.90;;;;;;5080075;28;20541;-45
2021/12/29 04:37:50;;;;;;;26.05;15.30;;;6.40;99.90;;;;;;5084127;28;20012;-48
2021/12/29 04:40:16;;;;;;;29.27;15.30;;;6.40;99.90;;;;;;5082201;28;20490;-45
2021/12/29 04:42:42;;;;;;;27.73;14.93;;;6.40;99.90;;;;;;5082200;28;20030;-45
2021/12/29 04:45:08;;;;;;;25.40;14.63;;;6.40;99.90;;;;;;5080530;28;20103;-45
2021/12/29 04:47:38;;;;;;;29.98;16.23;;;6.40;99.90;;;;;;5079457;28;20378;-45
2021/12/29 04:50:07;;;;;;;;;;;6.40;99.90;;;;;;5083764;28;20033;-45
2021/12/29 04:52:33;;;;;;;30.25;15.18;;;6.40;99.90;;;;;;5079972;28;20397;-46
2021/12/29 04:54:58;;;;;;;33.55;16.40;;;6.40;99.90;;;;;;5086700;28;20059;-45
2021/12/29 04:57:25;;;;;;;32.90;16.50;;;6.40;99.90;;;;;;5068256;28;20235;-46
2021/12/29 04:59:51;;;;;;;31.40;16.10;;;6.40;99.90;;;;;;5084693;28;20062;-48
2021/12/29 05:02:17;;;;;;;29.83;16.77;;;6.40;99.90;;;;;;5077320;28;20025;-46
2021/12/29 05:04:47;;;;;;;33.33;16.98;;;6.40;99.90;;;;;;5083463;28;20032;-47
2021/12/29 05:09:59;;;;;;;35.42;17.42;;;6.40;99.90;;;;;;5085918;28;19980;-47
2021/12/29 05:12:24;;;;;;;31.25;17.58;;;6.40;99.90;;;;;;5081453;28;20056;-46
2021/12/29 05:14:50;;;;;;;33.15;16.88;;;6.40;99.90;;;;;;5081075;28;20271;-45
2021/12/29 05:17:15;;;;;;;41.85;20.77;;;6.40;99.90;;;;;;5076722;28;20009;-46
2021/12/29 05:19:41;;;;;;;41.17;19.88;;;6.40;99.90;;;;;;5073683;28;20442;-45
2021/12/29 05:22:06;;;;;;;41.05;19.13;;;6.40;99.90;;;;;;5079070;28;20090;-45
2021/12/29 05:24:32;;;;;;;37.88;18.88;;;6.40;99.90;;;;;;5080175;28;20028;-45
2021/12/29 05:26:58;;;;;;;41.13;19.20;;;6.50;99.90;;;;;;5080893;28;20535;-45
2021/12/29 05:29:25;;;;;;;34.00;19.00;;;6.50;99.90;;;;;;5079586;28;20389;-46
2021/12/29 05:31:51;;;;;;;39.42;18.48;;;6.40;99.90;;;;;;5082184;28;20040;-46
2021/12/29 05:34:16;;;;;;;39.42;19.58;;;6.50;99.90;;;;;;5079353;28;20028;-46
2021/12/29 05:36:42;;;;;;;34.20;18.05;;;6.40;99.90;;;;;;5088521;28;20077;-45
2021/12/29 05:39:08;;;;;;;43.17;20.05;;;6.40;99.90;;;;;;5084129;28;20044;-45
2021/12/29 05:41:34;;;;;;;36.17;18.67;;;6.40;99.90;;;;;;5081822;28;20016;-46
2021/12/29 05:44:00;;;;;;;43.20;19.67;;;6.40;99.90;;;;;;5085307;28;20035;-46
2021/12/29 05:46:25;;;;;;;40.33;20.13;;;6.40;99.90;;;;;;5079797;28;20035;-47
2021/12/29 05:48:51;;;;;;;39.83;19.95;;;6.40;99.90;;;;;;5087372;28;20127;-46
2021/12/29 05:51:16;;;;;;;46.45;21.08;;;6.40;99.90;;;;;;5076668;28;20334;-48
2021/12/29 05:53:42;;;;;;;38.67;20.48;;;6.40;99.90;;;;;;5083214;28;20058;-46
2021/12/29 05:56:09;;;;;;;38.33;19.55;;;6.40;99.90;;;;;;5079295;28;20381;-47
2021/12/29 05:58:35;;;;;;;45.05;20.42;;;6.40;99.90;;;;;;5084404;28;20100;-45
2021/12/29 06:01:01;;;;;;;40.63;20.08;;;6.40;99.90;;;;;;5089357;28;20039;-46
2021/12/29 06:03:27;;;;;;;41.30;21.00;;;6.40;99.90;;;;;;5084508;28;20362;-46
2021/12/29 06:05:52;;;;;;;42.50;20.13;;;6.30;99.90;;;;;;5092081;28;20043;-46
2021/12/29 06:08:18;;;;;;;41.22;19.65;;;6.30;99.90;;;;;;5091505;28;20035;-45
2021/12/29 06:10:43;;;;;;;40.28;19.75;;;6.30;99.90;;;;;;5092003;28;20606;-45
2021/12/29 06:13:09;;;;;;;33.97;18.80;;;6.30;99.90;;;;;;5090376;28;20028;-46
2021/12/29 06:15:35;;;;;;;44.40;20.33;;;6.30;99.90;;;;;;5091565;28;20024;-46
2021/12/29 06:18:01;;;;;;;40.05;19.20;;;6.30;99.90;;;;;;5081242;28;20176;-45
2021/12/29 06:20:26;;;;;;;36.10;18.25;;;6.30;99.90;;;;;;5084029;28;20032;-45
2021/12/29 06:22:52;;;;;;;37.75;18.17;;;6.30;99.90;;;;;;5107002;28;20503;-45
2021/12/29 06:25:18;;;;;;;40.83;18.77;;;6.30;99.90;;;;;;5085852;28;20432;-55
2021/12/29 06:27:44;;;;;;;38.10;18.55;;;6.30;99.90;;;;;;5079496;28;20052;-46
2021/12/29 06:30:12;;;;;;;33.90;16.83;;;6.30;99.90;;;;;;5082944;28;20054;-49
2021/12/29 06:32:39;;;;;;;37.05;17.33;;;6.30;99.90;;;;;;5086377;28;20551;-47
2021/12/29 06:35:06;;;;;;;33.95;16.77;;;6.40;99.90;;;;;;5103158;28;20036;-46
2021/12/29 06:37:32;;;;;;;34.25;17.88;;;6.30;99.90;;;;;;5070399;28;20259;-46
2021/12/29 06:39:57;;;;;;;38.65;18.00;;;6.30;99.90;;;;;;5070978;28;20107;-47
2021/12/29 06:42:23;;;;;;;35.00;16.25;;;6.30;99.90;;;;;;5074061;28;20024;-46
2021/12/29 06:44:49;;;;;;;37.50;18.52;;;6.30;99.90;;;;;;5082821;28;20020;-47
2021/12/29 06:47:15;;;;;;;35.55;17.33;;;6.30;99.90;;;;;;5090609;28;20020;-49
2021/12/29 06:49:41;;;;;;;37.53;17.65;;;6.30;99.90;;;;;;5090964;28;20426;-47
2021/12/29 06:52:08;;;;;;;40.20;17.63;;;6.30;99.90;;;;;;5088691;28;20089;-46
2021/12/29 06:54:34;;;;;;;38.20;16.40;;;6.30;99.90;;;;;;5079426;28;20020;-47
2021/12/29 06:57:00;;;;;;;41.72;18.60;;;6.30;99.90;;;;;;5087506;28;20035;-46
2021/12/29 06:59:26;;;;;;;40.60;17.85;;;6.30;99.90;;;;;;5090595;28;20089;-49
2021/12/29 07:01:51;;;;;;;40.60;18.13;;;6.30;99.90;;;;;;5084011;28;20016;-45
2021/12/29 07:04:17;;;;;;;45.00;20.38;;;6.30;99.90;;;;;;5082254;28;20028;-46
2021/12/29 07:06:43;;;;;;;43.47;19.40;;;6.30;99.90;;;;;;5090700;28;20071;-48
2021/12/29 07:09:09;;;;;;;42.97;20.15;;;6.30;99.90;;;;;;5089730;28;20446;-46
2021/12/29 07:11:36;;;;;;;50.47;20.45;;;6.30;99.90;;;;;;5086202;28;20066;-48
2021/12/29 07:14:04;;;;;;;43.38;19.45;;;6.30;99.90;;;;;;5082057;28;20031;-47
2021/12/29 07:16:33;;;;;;;39.28;16.58;;;6.30;99.90;;;;;;5088938;28;20099;-46
2021/12/29 07:18:58;;;;;;;40.60;16.80;;;6.30;99.90;;;;;;5081103;28;20501;-47
2021/12/29 07:21:24;;;;;;;37.50;16.73;;;6.30;99.90;;;;;;5082346;28;20060;-46
2021/12/29 07:23:53;;;;;;;36.95;17.15;;;6.20;99.90;;;;;;5090546;28;20028;-46
2021/12/29 07:26:19;;;;;;;40.20;16.63;;;6.20;99.90;;;;;;5090204;28;20422;-46
2021/12/29 07:28:45;;;;;;;39.92;16.83;;;6.30;99.90;;;;;;5077765;28;20123;-47
2021/12/29 07:31:10;;;;;;;37.25;16.45;;;6.30;99.90;;;;;;5088858;28;20496;-46
2021/12/29 07:33:36;;;;;;;38.80;17.15;;;6.30;99.90;;;;;;5090191;28;20042;-46
2021/12/29 07:36:02;;;;;;;38.97;16.50;;;6.30;99.90;;;;;;5083776;28;20074;-46
2021/12/29 07:38:27;;;;;;;38.08;16.65;;;6.30;99.90;;;;;;5068945;28;20582;-46
2021/12/29 07:40:53;;;;;;;39.75;17.38;;;6.30;99.90;;;;;;5069589;28;20501;-46
2021/12/29 07:43:19;;;;;;;41.50;16.80;;;6.30;99.90;;;;;;5069308;28;20032;-46
2021/12/29 07:45:45;;;;;;;37.97;16.50;;;6.30;99.90;;;;;;5070509;28;20035;-46
2021/12/29 07:48:11;;;;;;;36.20;15.85;;;6.30;99.90;;;;;;5079282;28;20024;-45
2021/12/29 07:50:38;;;;;;;41.60;18.20;;;6.20;99.90;;;;;;5089697;28;20031;-46
2021/12/29 07:53:04;;;;;;;40.95;17.98;;;6.20;99.90;;;;;;5089647;28;20024;-45
2021/12/29 07:55:30;;;;;;;40.72;17.90;;;6.30;99.90;;;;;;5089403;28;20040;-45
2021/12/29 07:57:57;;;;;;;39.65;18.08;;;6.30;99.90;;;;;;5077985;28;20158;-45
2021/12/29 08:00:23;;;;;;;46.47;18.80;;;6.20;99.90;;;;;;5089543;28;20602;-46
2021/12/29 08:02:50;;;;;;;43.97;18.20;;;6.30;99.90;;;;;;5080550;28;20024;-45
2021/12/29 08:05:16;;;;;;;40.15;18.27;;;6.30;99.90;;;;;;5080762;28;20031;-45
2021/12/29 08:07:41;;;;;;;48.42;18.55;;;6.20;99.90;;;;;;5089205;28;20024;-48
2021/12/29 08:10:07;;;;;;;49.65;19.92;;;6.20;99.90;;;;;;5089393;28;20097;-45
2021/12/29 08:12:33;;;;;;;42.63;18.40;;;6.30;99.90;;;;;;5088096;28;20089;-46
2021/12/29 08:14:59;;;;;;;45.92;19.45;;;6.20;99.90;;;;;;5075732;28;20086;-46
2021/12/29 08:17:24;;;;;;;47.72;20.83;;;6.30;99.90;;;;;;5081892;28;20457;-45
2021/12/29 08:19:50;;;;;;;44.35;19.88;;;6.20;99.90;;;;;;5070577;28;20437;-45
2021/12/29 08:22:17;;;;;;;44.17;18.88;;;6.30;99.90;;;;;;5072612;28;20040;-46
2021/12/29 08:24:43;;;;;;;43.40;18.67;;;6.20;99.90;;;;;;5067246;28;20472;-46
2021/12/29 08:27:09;;;;;;;40.97;18.42;;;6.20;99.90;;;;;;5077160;28;20093;-46
2021/12/29 08:29:35;;;;;;;39.45;17.55;;;6.30;99.90;;;;;;5066882;28;20017;-46
2021/12/29 08:32:01;;;;;;;46.50;18.38;;;6.30;99.90;;;;;;5068475;28;20090;-45
2021/12/29 08:34:27;;;;;;;40.20;17.20;;;6.30;99.90;;;;;;5075958;28;20020;-48
2021/12/29 08:36:53;;;;;;;39.17;16.50;;;6.30;99.90;;;;;;5076748;28;20033;-45
2021/12/29 08:39:19;;;;;;;34.72;14.57;;;6.30;99.90;;;;;;5079057;28;20400;-46
2021/12/29 08:41:49;;;;;;;33.35;14.82;;;6.30;99.90;;;;;;5068856;28;20059;-46
2021/12/29 08:44:14;;;;;;;31.73;14.38;;;6.30;99.90;;;;;;5079690;28;20027;-46
2021/12/29 08:46:40;;;;;;;36.10;15.68;;;6.40;99.90;;;;;;5088869;28;20040;-45
2021/12/29 08:49:06;;;;;;;31.50;14.80;;;6.40;99.90;;;;;;5077511;28;20033;-45
2021/12/29 08:51:32;;;;;;;26.90;12.65;;;6.40;99.90;;;;;;5073166;28;20032;-46
2021/12/29 08:53:59;;;;;;;29.33;12.85;;;6.40;99.90;;;;;;5076191;28;20020;-46
2021/12/29 08:56:25;;;;;;;28.60;12.95;;;6.40;99.90;;;;;;5072257;28;20502;-47
2021/12/29 08:58:52;;;;;;;25.90;11.38;;;6.40;99.90;;;;;;5071125;28;20028;-46
2021/12/29 09:01:19;;;;;;;28.80;13.13;;;6.50;99.90;;;;;;5083132;28;20458;-46
2021/12/29 09:03:45;;;;;;;26.92;11.82;;;6.50;99.90;;;;;;5085676;28;20023;-49
2021/12/29 09:06:11;;;;;;;27.90;12.65;;;6.50;99.90;;;;;;5083977;28;20032;-46
2021/12/29 09:08:37;;;;;;;24.80;10.68;;;6.50;99.90;;;;;;5073533;28;20016;-47
2021/12/29 09:11:03;;;;;;;24.48;11.40;;;6.50;99.90;;;;;;5068309;28;20489;-47
2021/12/29 09:13:29;;;;;;;24.50;11.63;;;6.50;99.90;;;;;;5057087;28;20036;-47
2021/12/29 09:15:57;;;;;;;23.02;10.80;;;6.50;99.90;;;;;;5067209;28;20044;-47
2021/12/29 09:18:28;;;;;;;23.48;11.10;;;6.50;99.90;;;;;;5074256;28;20016;-48
2021/12/29 09:20:54;;;;;;;;;;;6.60;99.90;;;;;;5103741;28;20380;-48
2021/12/29 09:23:20;;;;;;;20.50;8.45;;;6.60;99.90;;;;;;5082895;28;19904;-48
2021/12/29 09:25:46;;;;;;;23.13;10.02;;;6.60;99.90;;;;;;5087388;28;20214;-48
2021/12/29 09:28:16;;;;;;;20.42;9.77;;;6.60;99.90;;;;;;5079897;28;20648;-50
2021/12/29 09:30:44;;;;;;;25.23;10.15;;;6.60;99.90;;;;;;5082028;28;20036;-47
2021/12/29 09:33:10;;;;;;;23.25;10.82;;;6.60;99.90;;;;;;5089876;28;20058;-47
2021/12/29 09:35:36;;;;;;;27.38;10.68;;;6.60;99.90;;;;;;5091263;28;20260;-51
2021/12/29 09:38:04;;;;;;;19.52;8.57;;;6.60;99.90;;;;;;5085831;28;20036;-47
2021/12/29 09:40:29;;;;;;;22.83;10.30;;;6.70;99.90;;;;;;5083119;28;20032;-47
2021/12/29 09:42:55;;;;;;;19.85;9.75;;;6.70;99.90;;;;;;5090687;28;20034;-46
2021/12/29 09:45:22;;;;;;;21.23;10.65;;;6.70;99.90;;;;;;5091375;28;20032;-48
2021/12/29 09:47:48;;;;;;;22.35;9.55;;;6.70;99.90;;;;;;5089383;28;20449;-47
2021/12/29 09:50:16;;;;;;;17.50;8.55;;;6.80;99.90;;;;;;5080742;28;20024;-46
2021/12/29 09:52:42;;;;;;;21.52;9.20;;;6.80;99.90;;;;;;5075684;28;20024;-46
2021/12/29 09:55:10;;;;;;;20.23;10.20;;;6.80;99.90;;;;;;5070544;28;20039;-47
2021/12/29 09:57:38;;;;;;;20.08;10.38;;;6.80;99.90;;;;;;5071872;28;20031;-47
2021/12/29 10:00:08;;;;;;;25.58;10.20;;;6.80;99.90;;;;;;5075701;28;20029;-46
2021/12/29 10:02:33;;;;;;;20.85;9.88;;;6.80;99.90;;;;;;5070651;28;20421;-46
2021/12/29 10:04:59;;;;;;;23.50;10.05;;;6.90;99.90;;;;;;5070420;28;20103;-47
2021/12/29 10:07:26;;;;;;;20.33;9.23;;;6.80;99.90;;;;;;5070065;28;20060;-47
2021/12/29 10:09:52;;;;;;;23.58;9.27;;;6.80;99.90;;;;;;5077794;28;20465;-47
2021/12/29 10:12:21;;;;;;;24.25;9.85;;;6.90;99.90;;;;;;5078561;28;20047;-48
2021/12/29 10:14:55;;;;;;;18.55;8.80;;;6.80;99.90;;;;;;5066009;28;20033;-49
2021/12/29 10:17:26;;;;;;;17.48;8.50;;;6.80;99.90;;;;;;5064241;28;20373;-47
2021/12/29 10:20:00;;;;;;;;;;;6.80;99.90;;;;;;5082585;28;20059;-46
2021/12/29 10:22:25;;;;;;;22.10;8.73;;;6.80;99.90;;;;;;5083449;28;19965;-49
2021/12/29 10:25:06;;;;;;;18.52;8.02;;;6.80;99.90;;;;;;5081021;28;20020;-47
2021/12/29 10:27:31;;;;;;;;;;;6.80;99.90;;;;;;5082765;28;20473;-46
2021/12/29 10:29:57;;;;;;;17.70;8.55;;;6.80;99.90;;;;;;5081614;28;20032;-46
2021/12/29 10:32:25;;;;;;;18.63;8.93;;;6.80;99.90;;;;;;5088014;28;20063;-46
2021/12/29 10:34:54;;;;;;;21.90;9.30;;;6.90;99.90;;;;;;5080018;28;20055;-46
2021/12/29 10:37:25;;;;;;;19.10;8.80;;;6.80;99.90;;;;;;5088725;28;20047;-47
2021/12/29 10:39:55;;;;;;;16.17;7.72;;;6.90;99.90;;;;;;5078706;28;20040;-46
2021/12/29 10:42:25;;;;;;;18.90;8.32;;;6.90;99.90;;;;;;5057290;28;20040;-47
2021/12/29 10:44:57;;;;;;;15.98;7.63;;;6.90;99.90;;;;;;5076849;28;20062;-49
2021/12/29 10:47:27;;;;;;;13.27;6.60;;;7.00;99.90;;;;;;5049003;28;20029;-47
2021/12/29 10:50:13;;;;;;;16.25;7.07;;;7.00;99.90;;;;;;5074347;28;20051;-47
2021/12/29 10:52:44;;;;;;;15.38;6.40;;;7.00;99.90;;;;;;5048949;28;20052;-47
2021/12/29 10:55:36;;;;;;;12.38;6.13;;;7.00;99.90;;;;;;5076461;28;20036;-47
2021/12/29 10:58:04;;;;;;;11.10;6.15;;;7.00;99.90;;;;;;5087984;28;20038;-46
2021/12/29 11:00:30;;;;;;;13.65;6.22;;;7.00;99.90;;;;;;5070647;28;20541;-47
2021/12/29 11:03:09;;;;;;;11.82;6.95;;;7.00;99.90;;;;;;5086183;28;20028;-47
2021/12/29 11:05:40;;;;;;;12.27;6.30;;;7.10;99.90;;;;;;5077829;28;20066;-46
2021/12/29 11:08:09;;;;;;;12.30;6.03;;;7.10;99.90;;;;;;5087510;28;20271;-49
2021/12/29 11:10:35;;;;;;;10.85;5.82;;;7.10;99.90;;;;;;5072011;28;20021;-47
2021/12/29 11:13:01;;;;;;;10.82;5.60;;;7.10;99.90;;;;;;5077145;28;20056;-48
2021/12/29 11:15:33;;;;;;;10.60;5.55;;;7.20;99.90;;;;;;5063586;28;20037;-48
2021/12/29 11:18:07;;;;;;;11.82;5.75;;;7.20;99.90;;;;;;5074239;28;20051;-47
2021/12/29 11:20:34;;;;;;;11.18;6.13;;;7.20;99.90;;;;;;5068286;28;20402;-46
2021/12/29 11:23:10;;;;;;;12.90;5.82;;;7.20;99.90;;;;;;5077868;28;20082;-48
2021/12/29 11:25:37;;;;;;;9.77;5.15;;;7.30;99.90;;;;;;5089346;28;20032;-47
2021/12/29 11:28:04;;;;;;;11.05;6.47;;;7.30;99.90;;;;;;5081586;28;20030;-47
2021/12/29 11:30:30;;;;;;;12.27;6.03;;;7.30;99.90;;;;;;5068798;28;20275;-47
2021/12/29 11:33:11;;;;;;;10.48;6.15;;;7.30;99.90;;;;;;5067413;28;20032;-46
2021/12/29 11:35:38;;;;;;;;;;;7.40;99.90;;;;;;5077289;28;20055;-47
2021/12/29 11:38:04;;;;;;;12.30;5.50;;;7.40;99.90;;;;;;5065046;28;20362;-47
2021/12/29 11:40:35;;;;;;;9.25;5.78;;;7.30;99.90;;;;;;5080227;28;20435;-47
2021/12/29 11:43:00;;;;;;;11.40;6.20;;;7.30;99.90;;;;;;5087083;28;20500;-47
2021/12/29 11:45:26;;;;;;;11.75;7.10;;;7.30;99.90;;;;;;5077149;28;20028;-47
2021/12/29 11:47:52;;;;;;;12.50;6.90;;;7.40;99.90;;;;;;5082032;28;20047;-46
2021/12/29 11:50:25;;;;;;;12.73;7.57;;;7.40;99.90;;;;;;5070541;28;20024;-47
2021/12/29 11:53:15;;;;;;;12.55;6.03;;;7.40;99.90;;;;;;5072302;28;20386;-46
2021/12/29 11:55:45;;;;;;;12.80;6.55;;;7.50;99.90;;;;;;5066787;28;20028;-49
2021/12/29 11:58:18;;;;;;;11.90;6.88;;;7.50;99.90;;;;;;5078238;28;20037;-48
2021/12/29 12:00:59;;;;;;;13.07;6.50;;;7.40;99.90;;;;;;5087083;28;20031;-47
2021/12/29 12:03:25;;;;;;;14.57;6.50;;;7.50;99.90;;;;;;5075933;28;20108;-46
2021/12/29 12:05:51;;;;;;;14.38;7.03;;;7.40;99.90;;;;;;5068097;28;20066;-47
2021/12/29 12:08:24;;;;;;;16.13;7.75;;;7.50;99.90;;;;;;5068277;28;20020;-47
2021/12/29 12:10:50;;;;;;;18.73;7.85;;;7.40;99.90;;;;;;5079871;28;20093;-47
2021/12/29 12:13:28;;;;;;;14.80;8.25;;;7.40;99.90;;;;;;5083577;28;20023;-47
2021/12/29 12:16:08;;;;;;;10.98;6.45;;;7.40;99.90;;;;;;5066384;28;20449;-47
2021/12/29 12:18:51;;;;;;;11.65;5.80;;;7.40;99.90;;;;;;5053501;28;20114;-49
2021/12/29 12:21:32;;;;;;;17.65;7.95;;;7.40;99.90;;;;;;5076728;28;20031;-47
2021/12/29 12:24:15;;;;;;;;;;;7.40;99.90;;;;;;5067590;28;20035;-46
2021/12/29 12:26:55;;;;;;;17.77;7.75;;;7.50;99.90;;;;;;5074505;28;20131;-47
2021/12/29 12:29:22;;;;;;;21.98;9.40;;;7.50;99.90;;;;;;5069045;28;20227;-47
2021/12/29 12:32:25;;;;;;;19.13;8.75;;;7.50;99.90;;;;;;5075866;28;20118;-51
2021/12/29 12:35:05;;;;;;;22.88;9.38;;;7.50;99.90;;;;;;5065882;28;20048;-47
2021/12/29 12:37:42;;;;;;;18.50;9.43;;;7.50;99.90;;;;;;5067279;28;20067;-47
2021/12/29 12:40:12;;;;;;;21.10;8.90;;;7.60;99.90;;;;;;5065633;28;20362;-47
2021/12/29 12:42:39;;;;;;;21.88;9.57;;;7.50;99.90;;;;;;5078635;28;20020;-48
2021/12/29 12:45:18;;;;;;;17.27;9.38;;;7.50;99.90;;;;;;5087963;28;20514;-46
2021/12/29 12:47:44;;;;;;;23.42;10.68;;;7.50;99.90;;;;;;5073088;28;20021;-47
2021/12/29 12:50:10;;;;;;;18.52;9.32;;;7.50;99.90;;;;;;5086580;28;20069;-47
2021/12/29 12:52:44;;;;;;;25.23;11.10;;;7.60;99.90;;;;;;5077044;28;20025;-47